Terminal Aerodrome Forecast
Issued by NWS

Current Version | Previous Version | Text Only | Print | Product List | Glossary On
Versions: 1 2 3 4 5 6 7 8 9 10 11 12 13 14
000
FTUS44 KMAF 011100
TAFINK
TAF
KINK 011120Z 0112/0212 12004KT P6SM SKC
     FM011800 24013G18KT P6SM FEW100
     FM020100 16006KT P6SM SKC=

USA.gov is the U.S. government's official web portal to all federal, state and local government web resources and services.